createdAt,value
2022-12-23T11:38:21.433Z,4.40
2022-12-23T11:41:11.618Z,4.03
2022-12-23T11:43:57.545Z,5.45
2022-12-23T11:47:40.045Z,5.25
2022-12-23T11:53:42.708Z,7.75
2022-12-23T11:56:58.991Z,8.27
2022-12-23T12:07:35.852Z,8.05
2022-12-23T12:10:33.119Z,9.10
2022-12-23T12:13:40.316Z,8.60
2022-12-23T12:21:26.792Z,9.35
2022-12-23T12:27:58.230Z,8.65
2022-12-23T12:36:01.733Z,8.50
2022-12-23T12:38:31.009Z,7.78
2022-12-23T12:45:33.946Z,9.40
2022-12-23T12:49:07.829Z,8.35
2022-12-23T12:52:09.172Z,7.75
2022-12-23T12:56:00.039Z,9.52
2022-12-23T12:58:38.993Z,7.25
2022-12-23T13:01:48.487Z,8.20
2022-12-23T13:05:28.526Z,8.52
2022-12-23T13:08:53.730Z,9.73
2022-12-23T13:16:17.280Z,11.80
2022-12-23T13:23:53.512Z,12.67
2022-12-23T13:26:35.060Z,15.00
2022-12-23T13:33:25.809Z,9.73
2022-12-23T13:40:18.755Z,15.02
2022-12-23T13:43:19.031Z,13.70
2022-12-23T13:46:22.704Z,10.70
2022-12-23T13:49:14.008Z,14.65
2022-12-23T13:52:42.327Z,12.98
2022-12-23T13:56:31.324Z,11.75
2022-12-23T14:00:28.818Z,8.73
2022-12-23T14:03:19.518Z,11.65
2022-12-23T14:12:41.701Z,13.85
2022-12-23T14:15:57.891Z,12.77
2022-12-23T14:23:21.927Z,15.17
2022-12-23T14:42:37.930Z,10.60
2022-12-23T14:48:49.947Z,13.88
2022-12-23T14:56:06.751Z,12.88
2022-12-23T15:00:12.440Z,11.57
2022-12-23T15:04:39.585Z,12.13
2022-12-23T15:07:07.299Z,14.90
2022-12-23T15:10:04.313Z,16.00
2022-12-23T15:13:35.089Z,11.60
2022-12-23T15:22:30.281Z,16.35
2022-12-23T15:25:49.904Z,14.10
2022-12-23T15:28:54.590Z,15.55
2022-12-23T15:35:19.668Z,12.38
2022-12-23T15:37:58.179Z,13.57
2022-12-23T15:40:41.104Z,11.30
2022-12-23T15:43:33.758Z,13.13
2022-12-23T15:50:55.418Z,11.30
2022-12-23T15:54:26.961Z,16.95
2022-12-23T15:57:15.956Z,13.73
2022-12-23T16:00:30.373Z,14.60
2022-12-23T16:03:15.648Z,14.32
2022-12-23T16:05:51.222Z,13.82
2022-12-23T16:08:42.105Z,16.45
2022-12-23T16:11:59.951Z,15.63
2022-12-23T16:15:22.980Z,16.77
2022-12-23T16:18:46.981Z,17.92
2022-12-23T16:25:21.877Z,15.65
2022-12-23T16:28:18.562Z,16.95
2022-12-23T16:31:07.209Z,15.82
2022-12-23T16:34:14.927Z,13.05
2022-12-23T16:43:18.064Z,12.75
2022-12-23T16:46:15.033Z,15.30
2022-12-23T16:50:09.251Z,16.95
2022-12-23T16:52:50.689Z,17.65
2022-12-23T16:55:59.956Z,16.63
2022-12-23T16:58:38.254Z,14.13
2022-12-23T17:01:33.887Z,14.17
2022-12-23T17:10:37.700Z,18.17
2022-12-23T17:13:37.586Z,17.85
2022-12-23T17:16:32.150Z,15.32
2022-12-23T17:20:06.841Z,18.17
2022-12-23T17:22:51.247Z,18.15
2022-12-23T17:26:15.129Z,16.98
2022-12-23T17:29:16.709Z,15.75
2022-12-23T17:32:39.976Z,17.73
2022-12-23T17:35:20.263Z,15.43
2022-12-23T17:38:23.549Z,14.77
2022-12-23T17:41:30.296Z,16.85
2022-12-23T17:49:00.750Z,18.03
2022-12-23T17:52:44.600Z,18.50
2022-12-23T17:55:12.859Z,18.77
2022-12-23T18:00:57.841Z,18.60
2022-12-23T18:10:51.713Z,18.30
2022-12-23T18:13:40.981Z,17.77
2022-12-23T18:17:36.264Z,18.50
2022-12-23T18:28:15.266Z,17.87
2022-12-23T18:31:30.495Z,14.82
2022-12-23T18:36:21.581Z,15.55
2022-12-23T18:41:30.323Z,15.90
2022-12-23T18:44:20.996Z,16.40
2022-12-23T18:47:20.988Z,18.98
2022-12-23T18:50:21.166Z,13.98
2022-12-23T18:53:23.809Z,16.23
2022-12-23T18:55:57.202Z,15.50
2022-12-23T18:58:40.617Z,16.42
2022-12-23T19:03:01.160Z,15.70
2022-12-23T19:05:55.938Z,14.00
2022-12-23T19:08:46.740Z,15.70
2022-12-23T19:12:07.583Z,16.88
2022-12-23T19:15:25.512Z,14.65
2022-12-23T19:19:12.928Z,20.10
2022-12-23T19:27:47.370Z,18.83
2022-12-23T19:30:49.292Z,22.08
2022-12-23T19:37:04.493Z,14.90
2022-12-23T19:40:40.660Z,14.25
2022-12-23T19:43:52.880Z,14.25
2022-12-23T19:46:38.167Z,17.00
2022-12-23T20:03:18.640Z,14.85
2022-12-23T20:10:14.831Z,19.95
2022-12-23T20:12:38.654Z,21.57
2022-12-23T20:18:40.317Z,17.73
2022-12-23T20:21:40.734Z,18.92
2022-12-23T20:25:04.682Z,18.48
2022-12-23T20:31:04.359Z,17.10
2022-12-23T20:37:59.101Z,13.68
2022-12-23T20:40:55.349Z,14.95
2022-12-23T20:43:39.672Z,11.65
2022-12-23T20:47:40.876Z,13.68
2022-12-23T20:50:09.680Z,15.35
2022-12-23T20:52:57.284Z,12.25
2022-12-23T20:55:46.647Z,13.68
2022-12-23T20:59:05.445Z,14.50
2022-12-23T21:06:42.244Z,14.82
2022-12-23T21:07:56.509Z,17.80
2022-12-23T21:10:59.378Z,15.05
2022-12-23T21:17:09.757Z,12.95
2022-12-23T21:20:15.423Z,15.00
2022-12-23T21:22:57.792Z,12.63
2022-12-23T21:25:49.058Z,15.63
2022-12-23T21:30:35.565Z,14.20
2022-12-23T21:32:00.005Z,15.27
2022-12-23T21:35:10.530Z,13.77
2022-12-23T21:37:42.447Z,16.85
2022-12-23T21:40:25.956Z,13.05
2022-12-23T21:43:19.217Z,15.32
2022-12-23T21:46:11.155Z,17.08
2022-12-23T21:53:05.408Z,13.98
2022-12-23T21:55:29.083Z,16.25
2022-12-23T21:58:12.299Z,12.23
2022-12-23T22:00:58.764Z,17.33
2022-12-23T22:03:39.980Z,14.90
2022-12-23T22:09:08.960Z,15.90
2022-12-23T22:13:10.000Z,18.27
2022-12-23T22:16:17.115Z,11.18
2022-12-23T22:18:20.522Z,15.20
2022-12-23T22:20:55.627Z,15.20
2022-12-23T22:27:05.485Z,17.77
2022-12-23T22:32:51.641Z,18.77
2022-12-23T22:35:41.147Z,16.45
2022-12-23T22:39:51.091Z,15.80
2022-12-23T22:41:29.525Z,13.85
2022-12-23T22:47:21.162Z,16.17
2022-12-23T22:50:03.815Z,15.18
2022-12-23T22:53:17.530Z,18.20
2022-12-23T22:55:57.261Z,18.42
2022-12-23T22:58:33.007Z,17.47
2022-12-23T23:01:05.428Z,20.73
2022-12-23T23:06:37.732Z,18.33
2022-12-23T23:12:53.169Z,16.15
2022-12-23T23:18:29.425Z,15.52
2022-12-23T23:21:17.777Z,17.02
2022-12-23T23:28:14.164Z,15.45
2022-12-23T23:31:31.903Z,18.10
2022-12-23T23:34:21.211Z,17.17
2022-12-23T23:37:02.019Z,16.25
2022-12-23T23:40:22.990Z,19.90
2022-12-23T23:43:08.564Z,15.73
2022-12-23T23:45:56.517Z,17.08
2022-12-23T23:51:55.638Z,18.75
2022-12-23T23:57:30.988Z,18.63
